createdAt,value
2022-09-23T00:00:11.202Z,100876.53
2022-09-23T00:02:42.176Z,100880.44
2022-09-23T00:05:13.840Z,100886.13
2022-09-23T00:07:44.664Z,100884.81
2022-09-23T00:10:15.547Z,100899.91
2022-09-23T00:12:46.765Z,100908.38
2022-09-23T00:15:17.713Z,100903.69
2022-09-23T00:17:48.858Z,100907.75
2022-09-23T00:20:20.222Z,100908.56
2022-09-23T00:22:51.161Z,100906.94
2022-09-23T00:25:21.900Z,100917.16
2022-09-23T00:27:52.828Z,100918.88
2022-09-23T00:30:23.632Z,100921.34
2022-09-23T00:32:55.625Z,100928.38
2022-09-23T00:35:26.586Z,100926.75
2022-09-23T00:37:57.735Z,100925.09
2022-09-23T00:40:28.902Z,100929.78
2022-09-23T00:42:59.516Z,100933.88
2022-09-23T00:45:30.287Z,100936.13
2022-09-23T00:48:06.332Z,100936.63
2022-09-23T00:50:43.325Z,100933.88
2022-09-23T00:53:17.219Z,100940.53
2022-09-23T00:55:55.445Z,100939.09
2022-09-23T00:58:33.917Z,100933.78
2022-09-23T01:01:06.078Z,100926.66
2022-09-23T01:03:36.938Z,100943.50
2022-09-23T01:06:08.839Z,100937.66
2022-09-23T01:08:40.408Z,100943.69
2022-09-23T01:11:19.736Z,100938.06
2022-09-23T01:13:53.669Z,100945.50
2022-09-23T01:16:40.722Z,100940.22
2022-09-23T01:19:43.438Z,100934.81
2022-09-23T01:22:50.223Z,100935.59
2022-09-23T01:25:46.615Z,100949.38
2022-09-23T01:28:41.204Z,100953.16
2022-09-23T01:31:47.877Z,100953.50
2022-09-23T01:34:38.533Z,100955.72
2022-09-23T01:37:44.136Z,100955.41
2022-09-23T01:40:33.341Z,100960.31
2022-09-23T01:43:13.117Z,100966.16
2022-09-23T01:45:49.651Z,100967.78
2022-09-23T01:48:55.538Z,100971.03
2022-09-23T01:51:40.985Z,100965.81
2022-09-23T01:54:38.772Z,100982.69
2022-09-23T01:57:41.422Z,100984.00
2022-09-23T02:00:18.193Z,100984.81
2022-09-23T02:03:07.616Z,100982.88
2022-09-23T02:05:47.794Z,100988.06
2022-09-23T02:08:24.996Z,100990.00
2022-09-23T02:11:10.653Z,100988.06
2022-09-23T02:14:03.527Z,100990.81
2022-09-23T02:16:50.786Z,100981.66
2022-09-23T02:19:47.097Z,100982.78
2022-09-23T02:22:31.374Z,100990.41
2022-09-23T02:25:02.118Z,100995.09
2022-09-23T02:27:35.527Z,101000.63
2022-09-23T02:30:27.331Z,100999.50
2022-09-23T02:33:22.844Z,101002.44
2022-09-23T02:36:09.449Z,100993.88
2022-09-23T02:38:46.643Z,100996.75
2022-09-23T02:41:48.907Z,101011.03
2022-09-23T02:44:22.337Z,101003.88
2022-09-23T02:46:55.943Z,101009.91
2022-09-23T02:49:30.258Z,101017.56
2022-09-23T02:52:07.502Z,101003.56
2022-09-23T02:54:39.631Z,101012.06
2022-09-23T02:57:12.831Z,101006.84
2022-09-23T02:59:44.550Z,101006.53
2022-09-23T03:02:31.874Z,101020.81
2022-09-23T03:05:32.810Z,101008.97
2022-09-23T03:08:21.652Z,101009.78
2022-09-23T03:11:11.603Z,101015.28
2022-09-23T03:14:07.736Z,101005.91
2022-09-23T03:16:50.395Z,101008.66
2022-09-23T03:19:38.486Z,101010.28
2022-09-23T03:22:15.445Z,101002.03
2022-09-23T03:24:53.190Z,101006.75
2022-09-23T03:27:31.799Z,101006.41
2022-09-23T03:30:03.789Z,101005.28
2022-09-23T03:32:37.485Z,101010.81
2022-09-23T03:35:09.868Z,101003.84
2022-09-23T03:38:06.516Z,100999.78
2022-09-23T03:40:45.939Z,101001.41
2022-09-23T03:43:17.088Z,100998.84
2022-09-23T03:45:49.567Z,100996.41
2022-09-23T03:48:20.656Z,100990.91
2022-09-23T03:50:51.702Z,100990.56
2022-09-23T03:53:24.012Z,100985.88
2022-09-23T03:55:54.807Z,100985.88
2022-09-23T03:58:25.683Z,100979.25
2022-09-23T04:00:56.738Z,100982.00
2022-09-23T04:03:28.824Z,100973.75
2022-09-23T04:05:59.229Z,100958.81
2022-09-23T04:08:30.161Z,100962.38
2022-09-23T04:11:04.712Z,100964.84
2022-09-23T04:13:35.760Z,100960.94
2022-09-23T04:16:06.791Z,100949.09
2022-09-23T04:18:38.528Z,100949.91
2022-09-23T04:21:09.444Z,100950.41
2022-09-23T04:23:40.229Z,100950.41
2022-09-23T04:26:11.241Z,100945.41
2022-09-23T04:28:41.923Z,100935.50
2022-09-23T04:31:12.884Z,100923.34
2022-09-23T04:33:43.912Z,100928.06
2022-09-23T04:36:14.708Z,100929.97
2022-09-23T04:38:49.974Z,100921.09
2022-09-23T04:41:21.944Z,100919.47
2022-09-23T04:43:52.769Z,100909.25
2022-09-23T04:46:23.714Z,100907.31
2022-09-23T04:48:54.944Z,100889.97
2022-09-23T04:51:27.441Z,100884.91
2022-09-23T04:53:58.629Z,100876.34
2022-09-23T04:56:30.974Z,100882.16
2022-09-23T04:59:04.414Z,100876.03
2022-09-23T05:01:37.079Z,100863.59
2022-09-23T05:04:10.544Z,100855.59
2022-09-23T05:06:41.346Z,100853.69
2022-09-23T05:09:13.236Z,100854.78
2022-09-23T05:11:44.198Z,100841.81
2022-09-23T05:14:15.100Z,100835.50
2022-09-23T05:19:28.193Z,100836.28
2022-09-23T05:21:59.074Z,100826.38
2022-09-23T05:24:30.304Z,100818.94
2022-09-23T05:27:00.763Z,100823.88
2022-09-23T05:29:31.747Z,100811.47
2022-09-23T05:32:04.253Z,100809.03
2022-09-23T05:34:35.163Z,100794.31
2022-09-23T05:37:06.154Z,100797.09
2022-09-23T05:39:36.911Z,100783.63
2022-09-23T05:42:09.068Z,100774.22
2022-09-23T05:44:39.893Z,100767.88
2022-09-23T05:47:10.909Z,100762.03
2022-09-23T05:49:58.537Z,100751.00
2022-09-23T05:52:30.580Z,100745.97
2022-09-23T05:55:01.382Z,100743.22
2022-09-23T05:57:32.900Z,100738.84
2022-09-23T06:00:03.727Z,100727.81
2022-09-23T06:02:42.226Z,100720.66
2022-09-23T06:05:14.593Z,100714.00
2022-09-23T06:07:45.388Z,100711.25
2022-09-23T06:10:16.182Z,100711.75
2022-09-23T06:12:47.626Z,100698.78
2022-09-23T06:15:17.951Z,100686.94
2022-09-23T06:17:49.706Z,100680.63
2022-09-23T06:20:20.387Z,100666.00
2022-09-23T06:22:54.263Z,100662.09
2022-09-23T06:25:27.047Z,100660.19
2022-09-23T06:27:58.892Z,100647.19
2022-09-23T06:30:30.278Z,100649.94
2022-09-23T06:33:01.339Z,100650.44
2022-09-23T06:35:32.387Z,100650.94
2022-09-23T06:38:07.454Z,100641.03
2022-09-23T06:40:38.380Z,100637.66
2022-09-23T06:43:09.200Z,100629.66
2022-09-23T06:45:40.391Z,100619.13
2022-09-23T06:48:11.955Z,100610.06
2022-09-23T06:50:43.160Z,100611.19
2022-09-23T06:53:13.450Z,100600.97
2022-09-23T06:55:44.493Z,100598.69
2022-09-23T06:58:15.206Z,100593.50
2022-09-23T07:00:46.325Z,100593.19
2022-09-23T07:03:17.096Z,100588.50
2022-09-23T07:05:47.942Z,100584.59
2022-09-23T07:08:19.154Z,100583.47
2022-09-23T07:11:02.095Z,100580.38
2022-09-23T07:13:35.059Z,100580.03
2022-09-23T07:16:06.364Z,100572.59
2022-09-23T07:18:39.871Z,100566.75
2022-09-23T07:21:12.211Z,100563.19
2022-09-23T07:23:42.995Z,100561.72
2022-09-23T07:26:13.929Z,100553.28
2022-09-23T07:29:07.757Z,100553.78
2022-09-23T07:31:40.115Z,100554.56
2022-09-23T07:34:14.171Z,100557.50
2022-09-23T07:36:45.088Z,100551.50
2022-09-23T07:39:16.404Z,100543.53
2022-09-23T07:41:47.131Z,100542.41
2022-09-23T07:44:18.949Z,100551.50
2022-09-23T07:46:49.924Z,100551.50
2022-09-23T07:49:20.790Z,100558.31
2022-09-23T07:51:51.552Z,100539.81
2022-09-23T07:54:23.228Z,100531.88
2022-09-23T07:56:54.274Z,100531.88
2022-09-23T07:59:25.263Z,100525.50
2022-09-23T08:01:56.857Z,100537.38
2022-09-23T08:04:32.301Z,100531.53
2022-09-23T08:07:05.317Z,100530.38
2022-09-23T08:09:44.022Z,100521.63
2022-09-23T08:12:18.555Z,100515.31
2022-09-23T08:14:49.464Z,100513.69
2022-09-23T08:17:20.251Z,100506.53
2022-09-23T08:19:51.043Z,100504.91
2022-09-23T08:22:22.708Z,100493.09
2022-09-23T08:24:55.361Z,100492.75
2022-09-23T08:27:27.230Z,100482.06
2022-09-23T08:29:58.043Z,100477.81
2022-09-23T08:32:28.846Z,100488.53
2022-09-23T08:34:59.761Z,100470.53
2022-09-23T08:37:30.641Z,100475.22
2022-09-23T08:40:01.405Z,100472.16
2022-09-23T08:42:36.560Z,100474.91
2022-09-23T08:45:15.667Z,100468.25
2022-09-23T08:47:53.758Z,100471.81
2022-09-23T08:50:28.930Z,100461.91
2022-09-23T08:53:04.936Z,100458.34
2022-09-23T08:55:49.485Z,100461.59
2022-09-23T08:58:58.290Z,100454.13
2022-09-23T09:01:49.626Z,100465.50
2022-09-23T09:04:30.066Z,100470.19
2022-09-23T09:07:35.655Z,100471.31
2022-09-23T09:10:27.086Z,100483.19
2022-09-23T09:13:10.018Z,100496.63
2022-09-23T09:15:55.362Z,100491.94
2022-09-23T09:18:27.545Z,100493.53
2022-09-23T09:21:15.765Z,100502.97
2022-09-23T09:24:02.910Z,100509.31
2022-09-23T09:26:38.444Z,100513.69
2022-09-23T09:29:34.841Z,100513.69
2022-09-23T09:32:21.856Z,100506.88
2022-09-23T09:35:03.421Z,100512.84
2022-09-23T09:37:39.376Z,100512.84
2022-09-23T09:40:19.692Z,100506.88
2022-09-23T09:42:52.800Z,100510.44
2022-09-23T09:45:58.202Z,100515.94
2022-09-23T09:48:35.791Z,100523.44
2022-09-23T09:51:27.512Z,100516.28
2022-09-23T09:54:18.995Z,100523.75
2022-09-23T09:56:49.608Z,100522.13
2022-09-23T09:59:27.922Z,100535.09
2022-09-23T10:02:28.561Z,100530.09
2022-09-23T10:05:05.187Z,100531.72
2022-09-23T10:07:37.570Z,100538.84
2022-09-23T10:10:33.273Z,100543.22
2022-09-23T10:13:18.889Z,100547.59
2022-09-23T10:15:49.774Z,100552.31
2022-09-23T10:18:29.754Z,100563.34
2022-09-23T10:21:17.080Z,100586.72
2022-09-23T10:23:51.668Z,100585.41
2022-09-23T10:26:33.806Z,100588.97
2022-09-23T10:29:07.962Z,100585.75
2022-09-23T10:31:41.184Z,100583.31
2022-09-23T10:34:30.550Z,100580.06
2022-09-23T10:37:18.402Z,100589.16
2022-09-23T10:40:07.428Z,100596.94
2022-09-23T10:43:08.625Z,100599.22
2022-09-23T10:46:02.498Z,100594.19
2022-09-23T10:48:54.675Z,100586.88
2022-09-23T10:51:34.371Z,100571.94
2022-09-23T10:54:14.397Z,100575.03
2022-09-23T10:57:43.252Z,100581.66
2022-09-23T11:00:19.453Z,100581.19
2022-09-23T11:03:27.071Z,100573.72
2022-09-23T11:06:21.413Z,100582.00
2022-09-23T11:09:27.338Z,100585.25
2022-09-23T11:12:28.044Z,100598.56
2022-09-23T11:15:22.100Z,100590.91
2022-09-23T11:17:58.479Z,100587.66
2022-09-23T11:20:50.956Z,100582.47
2022-09-23T11:23:39.911Z,100582.47
2022-09-23T11:26:13.708Z,100590.41
2022-09-23T11:29:00.636Z,100593.81
2022-09-23T11:31:34.706Z,100598.19
2022-09-23T11:34:36.852Z,100598.19
2022-09-23T11:37:16.085Z,100609.56
2022-09-23T11:39:59.092Z,100613.13
2022-09-23T11:42:34.298Z,100625.63
2022-09-23T13:03:22.544Z,100751.31
2022-09-23T13:06:21.929Z,100756.16
2022-09-23T13:08:53.003Z,100760.53
2022-09-23T13:11:31.518Z,100762.50
2022-09-23T13:14:08.053Z,100770.94
2022-09-23T13:16:51.921Z,100779.16
2022-09-23T13:19:33.252Z,100788.81
2022-09-23T13:22:14.624Z,100789.97
2022-09-23T13:24:55.176Z,100805.56
2022-09-23T13:27:35.907Z,100805.41
2022-09-23T13:30:26.145Z,100815.66
2022-09-23T13:33:22.146Z,100825.06
2022-09-23T13:35:54.839Z,100821.88
2022-09-23T13:38:28.713Z,100826.09
2022-09-23T13:41:04.664Z,100836.34
2022-09-23T13:43:45.253Z,100847.38
2022-09-23T13:46:21.185Z,100851.91
2022-09-23T13:48:57.436Z,100867.16
2022-09-23T13:51:37.989Z,100872.47
2022-09-23T13:54:08.606Z,100874.38
2022-09-23T13:56:40.421Z,100890.41
2022-09-23T13:59:25.912Z,100893.09
2022-09-23T14:02:18.155Z,100899.63
2022-09-23T14:04:49.875Z,100901.94
2022-09-23T14:07:22.362Z,100908.59
2022-09-23T14:09:58.838Z,100906.34
2022-09-23T14:12:29.987Z,100905.84
2022-09-23T14:15:01.394Z,100904.72
2022-09-23T14:17:32.342Z,100906.78
2022-09-23T14:20:03.125Z,100900.44
2022-09-23T14:22:34.471Z,100903.88
2022-09-23T14:25:06.192Z,100910.22
2022-09-23T14:27:39.162Z,100912.91
2022-09-23T14:30:16.662Z,100927.09
2022-09-23T14:32:50.516Z,100930.84
2022-09-23T14:35:40.912Z,100943.31
2022-09-23T14:38:30.875Z,100943.22
2022-09-23T14:41:20.070Z,100941.25
2022-09-23T14:43:57.740Z,100935.56
2022-09-23T14:46:31.936Z,100938.94
2022-09-23T14:49:14.689Z,100936.78
2022-09-23T14:51:57.983Z,100926.59
2022-09-23T14:54:49.864Z,100922.81
2022-09-23T14:57:34.877Z,100937.91
2022-09-23T15:00:25.800Z,100945.41
2022-09-23T15:03:05.856Z,100956.09
2022-09-23T15:05:45.404Z,100954.97
2022-09-23T15:08:24.079Z,100958.25
2022-09-23T15:10:55.482Z,100945.56
2022-09-23T15:13:33.429Z,100943.66
2022-09-23T15:16:04.669Z,100931.78
2022-09-23T15:18:38.760Z,100931.47
2022-09-23T15:21:16.566Z,100937.31
2022-09-23T15:23:55.843Z,100930.66
2022-09-23T15:26:45.725Z,100929.03
2022-09-23T15:29:16.480Z,100932.63
2022-09-23T15:31:47.445Z,100930.66
2022-09-23T15:34:18.109Z,100934.22
2022-09-23T15:36:49.519Z,100927.91
2022-09-23T15:39:19.903Z,100935.06
2022-09-23T15:41:50.659Z,100937.81
2022-09-23T15:44:32.117Z,100942.50
2022-09-23T15:47:03.828Z,100951.28
2022-09-23T15:49:44.305Z,100946.09
2022-09-23T15:52:15.218Z,100953.22
2022-09-23T15:54:46.546Z,100945.47
2022-09-23T15:57:17.368Z,100949.97
2022-09-23T15:59:48.031Z,100946.09
2022-09-23T16:02:26.540Z,100932.28
2022-09-23T16:04:57.367Z,100926.41
2022-09-23T16:07:28.346Z,100917.66
2022-09-23T16:10:01.404Z,100917.78
2022-09-23T16:12:32.755Z,100920.75
2022-09-23T16:15:03.519Z,100923.31
2022-09-23T16:17:52.546Z,100926.41
2022-09-23T16:20:23.254Z,100921.56
2022-09-23T16:23:01.148Z,100938.72
2022-09-23T16:25:36.596Z,100953.03
2022-09-23T16:28:08.069Z,100945.59
2022-09-23T16:30:38.739Z,100939.75
2022-09-23T16:33:09.485Z,100920.75
2022-09-23T16:35:41.116Z,100906.31
2022-09-23T16:38:12.096Z,100899.16
2022-09-23T16:40:47.015Z,100906.81
2022-09-23T16:43:18.788Z,100901.91
2022-09-23T16:45:49.731Z,100903.06
2022-09-23T16:48:22.436Z,100912.31
2022-09-23T16:50:55.704Z,100920.44
2022-09-23T16:53:27.128Z,100915.03
2022-09-23T16:56:01.107Z,100914.09
2022-09-23T16:58:31.872Z,100901.75
2022-09-23T17:01:21.045Z,100905.13
2022-09-23T17:03:52.018Z,100903.63
2022-09-23T17:06:23.070Z,100904.88
2022-09-23T17:08:53.852Z,100910.22
2022-09-23T17:11:25.504Z,100895.13
2022-09-23T17:13:56.240Z,100892.66
2022-09-23T17:16:30.607Z,100892.66
2022-09-23T17:19:01.563Z,100888.59
2022-09-23T17:21:32.225Z,100893.28
2022-09-23T17:24:03.426Z,100888.59
2022-09-23T17:26:34.361Z,100882.75
2022-09-23T17:29:05.268Z,100885.00
2022-09-23T17:31:36.389Z,100861.97
2022-09-23T17:34:07.586Z,100861.97
2022-09-23T17:36:38.255Z,100852.03
2022-09-23T17:39:09.762Z,100851.53
2022-09-23T17:41:41.700Z,100857.66
2022-09-23T17:44:15.412Z,100858.00
2022-09-23T17:46:46.294Z,100856.53
2022-09-23T17:49:17.632Z,100865.44
2022-09-23T17:51:48.083Z,100851.66
2022-09-23T17:54:18.776Z,100858.28
2022-09-23T17:56:49.524Z,100854.72
2022-09-23T17:59:20.395Z,100846.75
2022-09-23T18:01:51.035Z,100839.31
2022-09-23T18:04:21.919Z,100836.06
2022-09-23T18:06:53.699Z,100834.09
2022-09-23T18:09:24.457Z,100835.25
2022-09-23T18:11:55.323Z,100830.03
2022-09-23T18:14:26.594Z,100830.88
2022-09-23T18:16:57.410Z,100837.50
2022-09-23T18:19:28.509Z,100827.09
2022-09-23T18:21:59.902Z,100825.13
2022-09-23T18:24:32.752Z,100813.31
2022-09-23T18:27:04.726Z,100803.75
2022-09-23T18:29:37.342Z,100797.72
2022-09-23T18:32:12.112Z,100797.38
2022-09-23T18:34:44.740Z,100792.72
2022-09-23T18:37:16.243Z,100793.19
2022-09-23T18:39:47.287Z,100790.13
2022-09-23T18:42:18.125Z,100789.63
2022-09-23T18:44:49.832Z,100792.72
2022-09-23T18:47:40.367Z,100793.69
2022-09-23T18:50:33.257Z,100800.31
2022-09-23T18:53:21.932Z,100797.56
2022-09-23T18:55:52.744Z,100782.97
2022-09-23T18:58:23.466Z,100770.31
2022-09-23T19:00:54.279Z,100772.59
2022-09-23T19:03:25.026Z,100769.50
2022-09-23T19:05:55.770Z,100765.13
2022-09-23T19:08:26.787Z,100765.94
2022-09-23T19:11:02.616Z,100754.13
2022-09-23T19:13:37.250Z,100748.09
2022-09-23T19:16:12.567Z,100737.38
2022-09-23T19:18:45.113Z,100732.97
2022-09-23T19:21:17.645Z,100744.84
2022-09-23T19:23:51.063Z,100741.25
2022-09-23T19:26:24.707Z,100738.19
2022-09-23T19:28:57.675Z,100749.53
2022-09-23T19:31:34.150Z,100747.25
2022-09-23T19:34:12.561Z,100732.97
2022-09-23T19:36:46.017Z,100726.34
2022-09-23T19:39:21.009Z,100720.81
2022-09-23T19:41:52.696Z,100714.19
2022-09-23T19:44:23.374Z,100707.03
2022-09-23T19:46:56.725Z,100711.44
2022-09-23T19:49:28.690Z,100715.81
2022-09-23T19:51:59.569Z,100716.81
2022-09-23T19:54:30.420Z,100706.75
2022-09-23T19:57:02.006Z,100707.53
2022-09-23T19:59:32.645Z,100707.25
2022-09-23T20:02:03.348Z,100715.31
2022-09-23T20:04:34.112Z,100705.91
2022-09-23T20:07:07.151Z,100706.53
2022-09-23T20:09:37.852Z,100707.53
2022-09-23T20:12:08.499Z,100705.41
2022-09-23T20:14:39.018Z,100707.88
2022-09-23T20:17:10.363Z,100702.66
2022-09-23T20:19:41.212Z,100696.03
2022-09-23T20:22:33.331Z,100689.53
2022-09-23T20:25:05.350Z,100687.56
2022-09-23T20:27:37.223Z,100687.56
2022-09-23T20:30:09.660Z,100695.03
2022-09-23T20:32:44.020Z,100686.78
2022-09-23T20:35:15.617Z,100684.03
2022-09-23T20:37:47.399Z,100678.50
2022-09-23T20:40:18.219Z,100687.56
2022-09-23T20:42:51.538Z,100676.03
2022-09-23T20:45:22.297Z,100690.66
2022-09-23T20:47:52.997Z,100679.44
2022-09-23T20:50:23.650Z,100680.75
2022-09-23T20:52:55.904Z,100687.69
2022-09-23T20:55:26.755Z,100689.31
2022-09-23T20:57:57.887Z,100684.16
2022-09-23T21:00:28.944Z,100686.41
2022-09-23T21:02:59.651Z,100690.28
2022-09-23T21:05:30.361Z,100690.28
2022-09-23T21:08:03.095Z,100692.72
2022-09-23T21:10:33.983Z,100682.34
2022-09-23T21:13:06.896Z,100682.34
2022-09-23T21:15:38.472Z,100674.88
2022-09-23T21:18:14.562Z,100679.88
2022-09-23T21:20:46.851Z,100677.63
2022-09-23T21:23:17.679Z,100683.75
2022-09-23T21:25:48.464Z,100685.91
2022-09-23T21:28:19.311Z,100683.47
2022-09-23T21:30:51.983Z,100689.47
2022-09-23T21:33:22.873Z,100685.72
2022-09-23T21:35:57.583Z,100692.53
2022-09-23T21:38:28.375Z,100691.72
2022-09-23T21:41:03.656Z,100696.41
2022-09-23T21:43:37.249Z,100701.94
2022-09-23T21:46:10.937Z,100703.72
2022-09-23T21:48:44.653Z,100699.50
2022-09-23T21:51:20.132Z,100711.16
2022-09-23T21:53:51.693Z,100716.66
2022-09-23T21:56:31.039Z,100708.91
2022-09-23T21:59:02.629Z,100723.19
2022-09-23T22:01:38.928Z,100723.97
2022-09-23T22:04:16.142Z,100726.22
2022-09-23T22:06:47.674Z,100724.31
2022-09-23T22:09:22.079Z,100726.22
2022-09-23T22:12:08.347Z,100730.31
2022-09-23T22:14:39.609Z,100729.00
2022-09-23T22:17:15.456Z,100731.75
2022-09-23T22:19:48.602Z,100735.34
2022-09-23T22:22:21.126Z,100741.97
2022-09-23T22:24:51.886Z,100746.66
2022-09-23T22:27:23.432Z,100750.56
2022-09-23T22:30:12.625Z,100749.72
2022-09-23T22:32:43.374Z,100758.31
2022-09-23T22:35:19.274Z,100748.94
2022-09-23T22:37:50.691Z,100754.13
2022-09-23T22:40:21.000Z,100747.47
2022-09-23T22:42:52.452Z,100749.72
2022-09-23T22:45:23.262Z,100747.31
2022-09-23T22:47:55.897Z,100748.28
2022-09-23T22:50:26.642Z,100746.47
2022-09-23T22:52:57.283Z,100746.19
2022-09-23T22:55:28.028Z,100754.44
2022-09-23T22:58:10.407Z,100751.19
2022-09-23T23:00:49.298Z,100761.88
2022-09-23T23:03:23.192Z,100766.09
2022-09-23T23:05:54.446Z,100771.59
2022-09-23T23:08:24.744Z,100768.53
2022-09-23T23:10:57.640Z,100774.03
2022-09-23T23:13:36.800Z,100762.50
2022-09-23T23:16:09.946Z,100759.63
2022-09-23T23:18:45.921Z,100758.31
2022-09-23T23:21:19.586Z,100758.25
2022-09-23T23:23:53.217Z,100765.41
2022-09-23T23:26:30.095Z,100761.66
2022-09-23T23:29:01.749Z,100766.28
2022-09-23T23:31:34.787Z,100759.94
2022-09-23T23:34:05.840Z,100757.94
2022-09-23T23:36:37.297Z,100765.69
2022-09-23T23:39:07.630Z,100765.69
2022-09-23T23:41:39.055Z,100774.19
2022-09-23T23:44:10.513Z,100781.22
2022-09-23T23:46:41.267Z,100787.22
2022-09-23T23:49:13.305Z,100789.19
2022-09-23T23:51:44.180Z,100795.38
2022-09-23T23:54:15.601Z,100801.41
2022-09-23T23:56:46.825Z,100803.53
2022-09-23T23:59:18.008Z,100818.09
